sensor_id;sensor_type;location;lat;lon;timestamp;P1;durP1;ratioP1;P2;durP2;ratioP2
23531;SDS011;11943;52.270;20.978;2023-05-10T00:01:37;10.48;;;6.30;;
23531;SDS011;11943;52.270;20.978;2023-05-10T00:04:03;11.70;;;6.03;;
23531;SDS011;11943;52.270;20.978;2023-05-10T00:06:29;19.13;;;6.30;;
23531;SDS011;11943;52.270;20.978;2023-05-10T00:08:55;8.60;;;5.60;;
23531;SDS011;11943;52.270;20.978;2023-05-10T00:11:20;11.10;;;6.40;;
23531;SDS011;11943;52.270;20.978;2023-05-10T00:13:46;12.52;;;5.65;;
23531;SDS011;11943;52.270;20.978;2023-05-10T00:16:12;12.75;;;6.93;;
23531;SDS011;11943;52.270;20.978;2023-05-10T00:18:38;9.88;;;6.03;;
23531;SDS011;11943;52.270;20.978;2023-05-10T00:21:04;9.18;;;5.72;;
23531;SDS011;11943;52.270;20.978;2023-05-10T00:23:30;8.77;;;5.85;;
23531;SDS011;11943;52.270;20.978;2023-05-10T00:25:55;9.82;;;6.05;;
23531;SDS011;11943;52.270;20.978;2023-05-10T00:28:21;13.48;;;6.05;;
23531;SDS011;11943;52.270;20.978;2023-05-10T00:30:47;11.05;;;6.43;;
23531;SDS011;11943;52.270;20.978;2023-05-10T00:33:13;8.30;;;5.60;;
23531;SDS011;11943;52.270;20.978;2023-05-10T00:35:38;13.90;;;6.00;;
23531;SDS011;11943;52.270;20.978;2023-05-10T00:38:04;10.45;;;5.68;;
23531;SDS011;11943;52.270;20.978;2023-05-10T00:40:30;8.48;;;5.70;;
23531;SDS011;11943;52.270;20.978;2023-05-10T00:42:56;14.20;;;5.80;;
23531;SDS011;11943;52.270;20.978;2023-05-10T00:45:23;8.95;;;5.78;;
23531;SDS011;11943;52.270;20.978;2023-05-10T00:47:49;8.30;;;5.60;;
23531;SDS011;11943;52.270;20.978;2023-05-10T00:50:14;10.40;;;5.25;;
23531;SDS011;11943;52.270;20.978;2023-05-10T00:52:41;10.88;;;5.68;;
23531;SDS011;11943;52.270;20.978;2023-05-10T00:55:07;11.27;;;5.47;;
23531;SDS011;11943;52.270;20.978;2023-05-10T00:57:36;9.27;;;5.55;;
23531;SDS011;11943;52.270;20.978;2023-05-10T01:00:02;9.10;;;5.80;;
23531;SDS011;11943;52.270;20.978;2023-05-10T01:02:28;16.83;;;5.63;;
23531;SDS011;11943;52.270;20.978;2023-05-10T01:04:54;12.13;;;5.47;;
23531;SDS011;11943;52.270;20.978;2023-05-10T01:07:20;9.00;;;5.78;;
23531;SDS011;11943;52.270;20.978;2023-05-10T01:09:46;14.75;;;5.75;;
23531;SDS011;11943;52.270;20.978;2023-05-10T01:12:12;8.73;;;5.25;;
23531;SDS011;11943;52.270;20.978;2023-05-10T01:14:37;8.15;;;5.15;;
23531;SDS011;11943;52.270;20.978;2023-05-10T01:17:04;12.45;;;5.50;;
23531;SDS011;11943;52.270;20.978;2023-05-10T01:19:31;15.75;;;5.57;;
23531;SDS011;11943;52.270;20.978;2023-05-10T01:38:08;9.15;;;5.43;;
23531;SDS011;11943;52.270;20.978;2023-05-10T01:40:56;10.02;;;5.07;;
23531;SDS011;11943;52.270;20.978;2023-05-10T01:43:31;6.65;;;5.15;;
23531;SDS011;11943;52.270;20.978;2023-05-10T01:46:05;8.68;;;5.22;;
23531;SDS011;11943;52.270;20.978;2023-05-10T01:48:40;7.50;;;5.25;;
23531;SDS011;11943;52.270;20.978;2023-05-10T01:51:13;9.50;;;5.00;;
23531;SDS011;11943;52.270;20.978;2023-05-10T01:53:46;9.07;;;5.40;;
23531;SDS011;11943;52.270;20.978;2023-05-10T01:56:13;8.00;;;5.30;;
23531;SDS011;11943;52.270;20.978;2023-05-10T01:58:40;7.60;;;4.80;;
23531;SDS011;11943;52.270;20.978;2023-05-10T02:01:11;7.03;;;4.90;;
23531;SDS011;11943;52.270;20.978;2023-05-10T02:03:37;7.65;;;5.32;;
23531;SDS011;11943;52.270;20.978;2023-05-10T02:06:05;8.68;;;5.43;;
23531;SDS011;11943;52.270;20.978;2023-05-10T02:08:32;9.57;;;5.40;;
23531;SDS011;11943;52.270;20.978;2023-05-10T02:11:00;6.55;;;4.80;;
23531;SDS011;11943;52.270;20.978;2023-05-10T02:13:27;10.60;;;5.05;;
23531;SDS011;11943;52.270;20.978;2023-05-10T02:15:54;10.90;;;5.22;;
23531;SDS011;11943;52.270;20.978;2023-05-10T02:18:22;10.32;;;5.22;;
23531;SDS011;11943;52.270;20.978;2023-05-10T02:20:50;6.35;;;4.70;;
23531;SDS011;11943;52.270;20.978;2023-05-10T02:23:18;8.85;;;5.43;;
23531;SDS011;11943;52.270;20.978;2023-05-10T02:25:45;8.82;;;5.47;;
23531;SDS011;11943;52.270;20.978;2023-05-10T02:28:13;8.70;;;5.18;;
23531;SDS011;11943;52.270;20.978;2023-05-10T02:30:40;7.95;;;5.25;;
23531;SDS011;11943;52.270;20.978;2023-05-10T02:33:07;7.68;;;5.50;;
23531;SDS011;11943;52.270;20.978;2023-05-10T02:35:33;8.95;;;5.45;;
23531;SDS011;11943;52.270;20.978;2023-05-10T02:38:00;7.85;;;5.10;;
23531;SDS011;11943;52.270;20.978;2023-05-10T02:40:26;7.60;;;5.47;;
23531;SDS011;11943;52.270;20.978;2023-05-10T02:42:54;9.43;;;5.75;;
23531;SDS011;11943;52.270;20.978;2023-05-10T02:45:22;8.65;;;5.07;;
23531;SDS011;11943;52.270;20.978;2023-05-10T02:47:51;11.63;;;4.97;;
23531;SDS011;11943;52.270;20.978;2023-05-10T02:50:17;9.88;;;5.47;;
23531;SDS011;11943;52.270;20.978;2023-05-10T02:52:47;9.48;;;5.22;;
23531;SDS011;11943;52.270;20.978;2023-05-10T02:55:16;8.95;;;5.53;;
23531;SDS011;11943;52.270;20.978;2023-05-10T02:57:48;9.20;;;5.47;;
23531;SDS011;11943;52.270;20.978;2023-05-10T03:00:23;9.48;;;5.90;;
23531;SDS011;11943;52.270;20.978;2023-05-10T03:02:49;14.25;;;4.82;;
23531;SDS011;11943;52.270;20.978;2023-05-10T03:05:15;6.88;;;5.07;;
23531;SDS011;11943;52.270;20.978;2023-05-10T03:07:41;11.20;;;5.65;;
23531;SDS011;11943;52.270;20.978;2023-05-10T03:10:07;11.80;;;5.32;;
23531;SDS011;11943;52.270;20.978;2023-05-10T03:15:37;11.77;;;5.60;;
23531;SDS011;11943;52.270;20.978;2023-05-10T03:18:23;8.50;;;4.93;;
23531;SDS011;11943;52.270;20.978;2023-05-10T03:21:02;12.60;;;5.32;;
23531;SDS011;11943;52.270;20.978;2023-05-10T03:23:44;10.60;;;5.47;;
23531;SDS011;11943;52.270;20.978;2023-05-10T03:26:23;8.82;;;5.10;;
23531;SDS011;11943;52.270;20.978;2023-05-10T03:28:50;8.50;;;5.30;;
23531;SDS011;11943;52.270;20.978;2023-05-10T03:31:18;8.95;;;5.25;;
23531;SDS011;11943;52.270;20.978;2023-05-10T03:33:47;11.30;;;5.00;;
23531;SDS011;11943;52.270;20.978;2023-05-10T03:36:14;7.75;;;5.47;;
23531;SDS011;11943;52.270;20.978;2023-05-10T03:38:40;10.48;;;5.13;;
23531;SDS011;11943;52.270;20.978;2023-05-10T03:41:05;10.35;;;5.30;;
23531;SDS011;11943;52.270;20.978;2023-05-10T03:43:31;14.45;;;6.07;;
23531;SDS011;11943;52.270;20.978;2023-05-10T03:45:56;11.13;;;5.82;;
23531;SDS011;11943;52.270;20.978;2023-05-10T03:48:22;10.75;;;5.15;;
23531;SDS011;11943;52.270;20.978;2023-05-10T03:50:48;9.80;;;5.18;;
23531;SDS011;11943;52.270;20.978;2023-05-10T03:53:14;8.10;;;5.05;;
23531;SDS011;11943;52.270;20.978;2023-05-10T03:55:40;9.85;;;4.72;;
23531;SDS011;11943;52.270;20.978;2023-05-10T03:58:06;8.90;;;5.03;;
23531;SDS011;11943;52.270;20.978;2023-05-10T04:00:35;9.73;;;5.75;;
23531;SDS011;11943;52.270;20.978;2023-05-10T04:03:01;8.77;;;4.63;;
23531;SDS011;11943;52.270;20.978;2023-05-10T04:05:26;12.45;;;5.40;;
23531;SDS011;11943;52.270;20.978;2023-05-10T04:07:52;11.80;;;5.20;;
23531;SDS011;11943;52.270;20.978;2023-05-10T04:10:17;11.02;;;5.00;;
23531;SDS011;11943;52.270;20.978;2023-05-10T04:12:43;14.18;;;4.90;;
23531;SDS011;11943;52.270;20.978;2023-05-10T04:15:09;9.27;;;5.40;;
23531;SDS011;11943;52.270;20.978;2023-05-10T04:17:35;12.75;;;5.20;;
23531;SDS011;11943;52.270;20.978;2023-05-10T04:20:00;10.07;;;5.20;;
23531;SDS011;11943;52.270;20.978;2023-05-10T04:22:26;10.05;;;4.85;;
23531;SDS011;11943;52.270;20.978;2023-05-10T04:24:53;7.28;;;5.13;;
23531;SDS011;11943;52.270;20.978;2023-05-10T04:27:19;9.65;;;4.88;;
23531;SDS011;11943;52.270;20.978;2023-05-10T04:29:45;8.02;;;4.90;;
23531;SDS011;11943;52.270;20.978;2023-05-10T04:32:10;8.48;;;5.28;;
23531;SDS011;11943;52.270;20.978;2023-05-10T04:34:36;7.30;;;4.50;;
23531;SDS011;11943;52.270;20.978;2023-05-10T04:37:02;12.75;;;5.80;;
23531;SDS011;11943;52.270;20.978;2023-05-10T04:39:28;10.88;;;4.75;;
23531;SDS011;11943;52.270;20.978;2023-05-10T04:41:54;10.02;;;5.10;;
23531;SDS011;11943;52.270;20.978;2023-05-10T04:44:19;9.05;;;4.93;;
23531;SDS011;11943;52.270;20.978;2023-05-10T04:46:45;6.82;;;4.82;;
23531;SDS011;11943;52.270;20.978;2023-05-10T04:49:11;11.38;;;5.53;;
23531;SDS011;11943;52.270;20.978;2023-05-10T04:51:36;13.82;;;5.57;;
23531;SDS011;11943;52.270;20.978;2023-05-10T04:54:02;6.22;;;4.30;;
23531;SDS011;11943;52.270;20.978;2023-05-10T04:56:27;8.35;;;5.20;;
23531;SDS011;11943;52.270;20.978;2023-05-10T04:58:53;10.32;;;5.22;;
23531;SDS011;11943;52.270;20.978;2023-05-10T05:01:19;9.55;;;5.25;;
23531;SDS011;11943;52.270;20.978;2023-05-10T05:03:44;7.22;;;4.60;;
23531;SDS011;11943;52.270;20.978;2023-05-10T05:06:10;10.55;;;4.93;;
23531;SDS011;11943;52.270;20.978;2023-05-10T05:08:35;9.02;;;5.03;;
23531;SDS011;11943;52.270;20.978;2023-05-10T05:11:01;12.43;;;4.70;;
23531;SDS011;11943;52.270;20.978;2023-05-10T05:13:27;9.00;;;4.55;;
23531;SDS011;11943;52.270;20.978;2023-05-10T05:15:52;15.18;;;6.00;;
23531;SDS011;11943;52.270;20.978;2023-05-10T05:18:18;6.68;;;4.65;;
23531;SDS011;11943;52.270;20.978;2023-05-10T05:20:44;8.77;;;4.40;;
23531;SDS011;11943;52.270;20.978;2023-05-10T05:23:09;9.15;;;4.95;;
23531;SDS011;11943;52.270;20.978;2023-05-10T05:25:35;15.30;;;5.13;;
23531;SDS011;11943;52.270;20.978;2023-05-10T05:28:01;8.80;;;4.70;;
23531;SDS011;11943;52.270;20.978;2023-05-10T05:30:27;7.18;;;4.57;;
23531;SDS011;11943;52.270;20.978;2023-05-10T05:32:52;12.40;;;4.40;;
23531;SDS011;11943;52.270;20.978;2023-05-10T05:35:18;14.07;;;4.80;;
23531;SDS011;11943;52.270;20.978;2023-05-10T05:37:43;11.10;;;4.35;;
23531;SDS011;11943;52.270;20.978;2023-05-10T05:40:13;12.07;;;4.82;;
23531;SDS011;11943;52.270;20.978;2023-05-10T05:42:39;10.52;;;4.55;;
23531;SDS011;11943;52.270;20.978;2023-05-10T05:45:05;20.77;;;4.43;;
23531;SDS011;11943;52.270;20.978;2023-05-10T05:47:31;6.82;;;4.13;;
23531;SDS011;11943;52.270;20.978;2023-05-10T05:49:57;8.77;;;3.90;;
23531;SDS011;11943;52.270;20.978;2023-05-10T05:52:22;9.90;;;4.30;;
23531;SDS011;11943;52.270;20.978;2023-05-10T05:54:48;11.48;;;4.32;;
23531;SDS011;11943;52.270;20.978;2023-05-10T05:57:14;8.52;;;3.90;;
23531;SDS011;11943;52.270;20.978;2023-05-10T05:59:39;10.68;;;4.38;;
23531;SDS011;11943;52.270;20.978;2023-05-10T06:02:08;12.85;;;4.35;;
23531;SDS011;11943;52.270;20.978;2023-05-10T06:04:34;11.18;;;3.92;;
23531;SDS011;11943;52.270;20.978;2023-05-10T06:07:00;10.13;;;4.18;;
23531;SDS011;11943;52.270;20.978;2023-05-10T06:09:26;14.32;;;4.22;;
23531;SDS011;11943;52.270;20.978;2023-05-10T06:11:51;13.02;;;4.63;;
23531;SDS011;11943;52.270;20.978;2023-05-10T06:14:19;8.93;;;4.03;;
23531;SDS011;11943;52.270;20.978;2023-05-10T06:16:45;8.65;;;4.28;;
23531;SDS011;11943;52.270;20.978;2023-05-10T06:19:11;10.70;;;3.90;;
23531;SDS011;11943;52.270;20.978;2023-05-10T06:21:37;6.07;;;3.40;;
23531;SDS011;11943;52.270;20.978;2023-05-10T06:24:03;10.13;;;4.13;;
23531;SDS011;11943;52.270;20.978;2023-05-10T06:26:30;11.35;;;3.53;;
23531;SDS011;11943;52.270;20.978;2023-05-10T06:28:56;9.23;;;3.67;;
23531;SDS011;11943;52.270;20.978;2023-05-10T06:31:21;8.80;;;3.40;;
23531;SDS011;11943;52.270;20.978;2023-05-10T06:33:47;10.02;;;4.00;;
23531;SDS011;11943;52.270;20.978;2023-05-10T06:36:13;9.68;;;3.28;;
23531;SDS011;11943;52.270;20.978;2023-05-10T06:38:38;5.80;;;3.10;;
23531;SDS011;11943;52.270;20.978;2023-05-10T06:41:04;14.60;;;3.42;;
23531;SDS011;11943;52.270;20.978;2023-05-10T06:43:30;7.32;;;2.90;;
23531;SDS011;11943;52.270;20.978;2023-05-10T06:45:56;13.35;;;3.40;;
23531;SDS011;11943;52.270;20.978;2023-05-10T06:48:22;11.55;;;3.53;;
23531;SDS011;11943;52.270;20.978;2023-05-10T06:50:48;9.13;;;3.55;;
23531;SDS011;11943;52.270;20.978;2023-05-10T06:53:13;16.30;;;3.47;;
23531;SDS011;11943;52.270;20.978;2023-05-10T06:55:40;7.88;;;3.30;;
23531;SDS011;11943;52.270;20.978;2023-05-10T06:58:05;10.60;;;3.20;;
23531;SDS011;11943;52.270;20.978;2023-05-10T07:00:31;5.22;;;3.22;;
23531;SDS011;11943;52.270;20.978;2023-05-10T07:02:57;7.78;;;3.67;;
23531;SDS011;11943;52.270;20.978;2023-05-10T07:05:23;12.10;;;3.25;;
23531;SDS011;11943;52.270;20.978;2023-05-10T07:07:49;6.88;;;2.97;;
23531;SDS011;11943;52.270;20.978;2023-05-10T07:10:14;12.07;;;2.95;;
23531;SDS011;11943;52.270;20.978;2023-05-10T07:12:40;8.80;;;2.70;;
23531;SDS011;11943;52.270;20.978;2023-05-10T07:15:06;12.82;;;3.25;;
23531;SDS011;11943;52.270;20.978;2023-05-10T07:17:32;3.72;;;2.65;;
23531;SDS011;11943;52.270;20.978;2023-05-10T07:19:58;5.20;;;3.10;;
23531;SDS011;11943;52.270;20.978;2023-05-10T07:22:25;8.10;;;2.55;;
23531;SDS011;11943;52.270;20.978;2023-05-10T07:24:51;6.30;;;2.67;;
23531;SDS011;11943;52.270;20.978;2023-05-10T07:27:16;9.02;;;2.65;;
23531;SDS011;11943;52.270;20.978;2023-05-10T07:29:42;9.75;;;2.90;;
23531;SDS011;11943;52.270;20.978;2023-05-10T07:32:07;12.60;;;2.40;;
23531;SDS011;11943;52.270;20.978;2023-05-10T07:34:33;9.60;;;2.50;;
23531;SDS011;11943;52.270;20.978;2023-05-10T07:36:59;5.18;;;2.50;;
23531;SDS011;11943;52.270;20.978;2023-05-10T07:39:25;5.75;;;2.30;;
23531;SDS011;11943;52.270;20.978;2023-05-10T07:41:51;13.98;;;2.97;;
23531;SDS011;11943;52.270;20.978;2023-05-10T07:44:17;10.65;;;2.60;;
23531;SDS011;11943;52.270;20.978;2023-05-10T07:46:45;7.35;;;2.95;;
23531;SDS011;11943;52.270;20.978;2023-05-10T07:49:11;8.77;;;2.60;;
23531;SDS011;11943;52.270;20.978;2023-05-10T07:51:37;4.80;;;2.50;;
23531;SDS011;11943;52.270;20.978;2023-05-10T07:54:04;3.97;;;2.90;;
23531;SDS011;11943;52.270;20.978;2023-05-10T07:56:30;8.88;;;2.42;;
23531;SDS011;11943;52.270;20.978;2023-05-10T07:58:57;28.75;;;3.50;;
23531;SDS011;11943;52.270;20.978;2023-05-10T08:01:26;7.38;;;2.40;;
23531;SDS011;11943;52.270;20.978;2023-05-10T08:03:54;7.00;;;2.15;;
23531;SDS011;11943;52.270;20.978;2023-05-10T08:06:21;6.10;;;2.40;;
23531;SDS011;11943;52.270;20.978;2023-05-10T08:08:47;5.65;;;2.60;;
23531;SDS011;11943;52.270;20.978;2023-05-10T08:11:18;5.20;;;2.30;;
23531;SDS011;11943;52.270;20.978;2023-05-10T08:13:45;17.67;;;2.72;;
23531;SDS011;11943;52.270;20.978;2023-05-10T08:16:12;6.15;;;2.50;;
23531;SDS011;11943;52.270;20.978;2023-05-10T08:18:38;4.03;;;2.13;;
23531;SDS011;11943;52.270;20.978;2023-05-10T08:21:04;3.22;;;2.13;;
23531;SDS011;11943;52.270;20.978;2023-05-10T08:23:30;7.78;;;2.35;;
23531;SDS011;11943;52.270;20.978;2023-05-10T08:25:55;7.85;;;2.05;;
23531;SDS011;11943;52.270;20.978;2023-05-10T08:28:21;9.30;;;2.35;;
23531;SDS011;11943;52.270;20.978;2023-05-10T08:30:49;11.02;;;2.20;;
23531;SDS011;11943;52.270;20.978;2023-05-10T08:33:17;6.40;;;2.53;;
23531;SDS011;11943;52.270;20.978;2023-05-10T08:35:43;6.07;;;2.17;;
23531;SDS011;11943;52.270;20.978;2023-05-10T08:38:09;7.55;;;2.30;;
23531;SDS011;11943;52.270;20.978;2023-05-10T08:40:36;5.82;;;2.30;;
23531;SDS011;11943;52.270;20.978;2023-05-10T08:43:06;7.82;;;1.83;;
23531;SDS011;11943;52.270;20.978;2023-05-10T08:45:37;2.40;;;1.88;;
23531;SDS011;11943;52.270;20.978;2023-05-10T08:48:07;6.80;;;2.00;;
23531;SDS011;11943;52.270;20.978;2023-05-10T08:53:05;3.00;;;1.90;;
23531;SDS011;11943;52.270;20.978;2023-05-10T08:55:35;3.83;;;2.05;;
23531;SDS011;11943;52.270;20.978;2023-05-10T08:58:03;5.93;;;2.30;;
23531;SDS011;11943;52.270;20.978;2023-05-10T09:00:30;9.35;;;2.10;;
23531;SDS011;11943;52.270;20.978;2023-05-10T09:02:57;5.18;;;1.98;;
23531;SDS011;11943;52.270;20.978;2023-05-10T09:05:23;7.63;;;2.25;;
23531;SDS011;11943;52.270;20.978;2023-05-10T09:07:49;3.30;;;2.05;;
23531;SDS011;11943;52.270;20.978;2023-05-10T09:10:15;4.65;;;2.20;;
23531;SDS011;11943;52.270;20.978;2023-05-10T09:12:41;3.75;;;2.40;;
23531;SDS011;11943;52.270;20.978;2023-05-10T09:15:09;3.40;;;2.13;;
23531;SDS011;11943;52.270;20.978;2023-05-10T09:17:35;10.25;;;2.00;;
23531;SDS011;11943;52.270;20.978;2023-05-10T09:20:03;4.65;;;1.95;;
23531;SDS011;11943;52.270;20.978;2023-05-10T09:22:30;7.75;;;2.20;;
23531;SDS011;11943;52.270;20.978;2023-05-10T09:27:32;7.45;;;2.60;;
23531;SDS011;11943;52.270;20.978;2023-05-10T09:29:58;7.18;;;2.17;;
23531;SDS011;11943;52.270;20.978;2023-05-10T09:32:43;4.45;;;1.92;;
23531;SDS011;11943;52.270;20.978;2023-05-10T09:35:11;9.98;;;2.28;;
23531;SDS011;11943;52.270;20.978;2023-05-10T09:37:38;7.43;;;2.05;;
23531;SDS011;11943;52.270;20.978;2023-05-10T09:40:11;6.05;;;1.98;;
23531;SDS011;11943;52.270;20.978;2023-05-10T09:42:42;5.72;;;1.98;;
23531;SDS011;11943;52.270;20.978;2023-05-10T09:45:15;9.50;;;2.10;;
23531;SDS011;11943;52.270;20.978;2023-05-10T09:47:41;4.18;;;2.03;;
23531;SDS011;11943;52.270;20.978;2023-05-10T09:50:06;5.03;;;2.30;;
23531;SDS011;11943;52.270;20.978;2023-05-10T09:52:48;5.72;;;2.38;;
23531;SDS011;11943;52.270;20.978;2023-05-10T09:55:23;2.47;;;1.95;;
23531;SDS011;11943;52.270;20.978;2023-05-10T09:58:10;7.28;;;2.00;;
23531;SDS011;11943;52.270;20.978;2023-05-10T10:00:38;3.80;;;2.07;;
23531;SDS011;11943;52.270;20.978;2023-05-10T10:03:05;35.53;;;3.00;;
23531;SDS011;11943;52.270;20.978;2023-05-10T10:05:32;9.40;;;2.25;;
23531;SDS011;11943;52.270;20.978;2023-05-10T10:10:29;6.88;;;2.10;;
23531;SDS011;11943;52.270;20.978;2023-05-10T10:12:56;6.80;;;2.47;;
23531;SDS011;11943;52.270;20.978;2023-05-10T10:15:22;13.68;;;2.63;;
23531;SDS011;11943;52.270;20.978;2023-05-10T10:17:49;3.95;;;1.98;;
23531;SDS011;11943;52.270;20.978;2023-05-10T10:20:16;7.10;;;2.10;;
23531;SDS011;11943;52.270;20.978;2023-05-10T10:22:45;6.03;;;2.05;;
23531;SDS011;11943;52.270;20.978;2023-05-10T10:25:12;2.83;;;1.80;;
23531;SDS011;11943;52.270;20.978;2023-05-10T10:30:35;4.40;;;2.13;;
23531;SDS011;11943;52.270;20.978;2023-05-10T10:36:10;2.85;;;2.40;;
23531;SDS011;11943;52.270;20.978;2023-05-10T10:49:51;12.27;;;2.90;;
23531;SDS011;11943;52.270;20.978;2023-05-10T11:10:34;5.57;;;1.88;;
23531;SDS011;11943;52.270;20.978;2023-05-10T11:13:00;7.40;;;1.85;;
23531;SDS011;11943;52.270;20.978;2023-05-10T11:18:19;11.95;;;2.13;;
23531;SDS011;11943;52.270;20.978;2023-05-10T11:20:51;6.13;;;2.05;;
23531;SDS011;11943;52.270;20.978;2023-05-10T11:23:31;3.55;;;2.08;;
23531;SDS011;11943;52.270;20.978;2023-05-10T11:26:21;11.80;;;2.50;;
23531;SDS011;11943;52.270;20.978;2023-05-10T11:28:51;7.25;;;1.83;;
23531;SDS011;11943;52.270;20.978;2023-05-10T11:31:20;11.15;;;2.13;;
23531;SDS011;11943;52.270;20.978;2023-05-10T11:33:52;6.10;;;2.13;;
23531;SDS011;11943;52.270;20.978;2023-05-10T11:36:20;10.98;;;2.38;;
23531;SDS011;11943;52.270;20.978;2023-05-10T11:38:51;8.40;;;2.25;;
23531;SDS011;11943;52.270;20.978;2023-05-10T11:41:17;5.55;;;2.38;;
23531;SDS011;11943;52.270;20.978;2023-05-10T11:43:47;7.90;;;2.55;;
23531;SDS011;11943;52.270;20.978;2023-05-10T11:46:15;13.82;;;3.08;;
23531;SDS011;11943;52.270;20.978;2023-05-10T11:48:43;3.33;;;1.90;;
23531;SDS011;11943;52.270;20.978;2023-05-10T11:51:09;6.72;;;2.20;;
23531;SDS011;11943;52.270;20.978;2023-05-10T11:53:36;6.03;;;2.30;;
23531;SDS011;11943;52.270;20.978;2023-05-10T11:56:06;4.40;;;1.88;;
23531;SDS011;11943;52.270;20.978;2023-05-10T11:58:33;10.75;;;2.65;;
23531;SDS011;11943;52.270;20.978;2023-05-10T12:01:00;2.75;;;1.83;;
23531;SDS011;11943;52.270;20.978;2023-05-10T12:03:27;4.70;;;2.22;;
23531;SDS011;11943;52.270;20.978;2023-05-10T12:05:54;5.47;;;2.15;;
23531;SDS011;11943;52.270;20.978;2023-05-10T12:08:21;5.20;;;2.20;;
23531;SDS011;11943;52.270;20.978;2023-05-10T12:10:48;7.70;;;2.40;;
23531;SDS011;11943;52.270;20.978;2023-05-10T12:13:14;7.50;;;2.35;;
23531;SDS011;11943;52.270;20.978;2023-05-10T12:15:40;6.32;;;2.10;;
23531;SDS011;11943;52.270;20.978;2023-05-10T12:18:10;5.73;;;2.00;;
23531;SDS011;11943;52.270;20.978;2023-05-10T12:20:37;11.13;;;1.90;;
23531;SDS011;11943;52.270;20.978;2023-05-10T12:23:03;7.90;;;2.05;;
23531;SDS011;11943;52.270;20.978;2023-05-10T12:25:31;10.43;;;2.05;;
23531;SDS011;11943;52.270;20.978;2023-05-10T12:30:26;8.00;;;2.35;;
23531;SDS011;11943;52.270;20.978;2023-05-10T12:32:53;8.95;;;2.15;;
23531;SDS011;11943;52.270;20.978;2023-05-10T12:35:24;8.82;;;2.53;;
23531;SDS011;11943;52.270;20.978;2023-05-10T12:37:52;5.53;;;2.20;;
23531;SDS011;11943;52.270;20.978;2023-05-10T12:40:18;6.22;;;2.28;;
23531;SDS011;11943;52.270;20.978;2023-05-10T12:42:43;6.10;;;1.90;;
23531;SDS011;11943;52.270;20.978;2023-05-10T12:45:13;3.42;;;2.15;;
23531;SDS011;11943;52.270;20.978;2023-05-10T12:47:39;4.55;;;1.80;;
23531;SDS011;11943;52.270;20.978;2023-05-10T12:50:05;7.40;;;1.98;;
23531;SDS011;11943;52.270;20.978;2023-05-10T12:52:31;5.05;;;1.80;;
23531;SDS011;11943;52.270;20.978;2023-05-10T12:54:57;3.25;;;2.00;;
23531;SDS011;11943;52.270;20.978;2023-05-10T12:57:24;77.80;;;5.50;;
23531;SDS011;11943;52.270;20.978;2023-05-10T12:59:50;4.00;;;1.98;;
23531;SDS011;11943;52.270;20.978;2023-05-10T13:02:16;4.82;;;2.15;;
23531;SDS011;11943;52.270;20.978;2023-05-10T13:04:45;7.05;;;2.08;;
23531;SDS011;11943;52.270;20.978;2023-05-10T13:07:12;12.23;;;2.42;;
23531;SDS011;11943;52.270;20.978;2023-05-10T13:09:37;5.22;;;1.95;;
23531;SDS011;11943;52.270;20.978;2023-05-10T13:12:03;6.80;;;1.90;;
23531;SDS011;11943;52.270;20.978;2023-05-10T13:14:29;7.10;;;2.50;;
23531;SDS011;11943;52.270;20.978;2023-05-10T13:16:55;5.63;;;2.83;;
23531;SDS011;11943;52.270;20.978;2023-05-10T13:19:22;4.78;;;2.15;;
23531;SDS011;11943;52.270;20.978;2023-05-10T13:21:47;12.75;;;2.33;;
23531;SDS011;11943;52.270;20.978;2023-05-10T13:24:13;5.68;;;2.00;;
23531;SDS011;11943;52.270;20.978;2023-05-10T13:26:42;3.83;;;1.90;;
23531;SDS011;11943;52.270;20.978;2023-05-10T13:29:07;9.55;;;2.10;;
23531;SDS011;11943;52.270;20.978;2023-05-10T13:31:33;9.40;;;2.30;;
23531;SDS011;11943;52.270;20.978;2023-05-10T13:33:59;8.23;;;2.15;;
23531;SDS011;11943;52.270;20.978;2023-05-10T13:36:25;7.88;;;2.33;;
23531;SDS011;11943;52.270;20.978;2023-05-10T13:38:51;11.48;;;2.60;;
23531;SDS011;11943;52.270;20.978;2023-05-10T13:41:17;6.40;;;2.60;;
23531;SDS011;11943;52.270;20.978;2023-05-10T13:43:42;9.30;;;2.20;;
23531;SDS011;11943;52.270;20.978;2023-05-10T13:46:08;6.63;;;2.22;;
23531;SDS011;11943;52.270;20.978;2023-05-10T13:48:33;11.38;;;1.95;;
23531;SDS011;11943;52.270;20.978;2023-05-10T13:53:27;9.75;;;2.00;;
23531;SDS011;11943;52.270;20.978;2023-05-10T13:55:52;7.60;;;2.30;;
23531;SDS011;11943;52.270;20.978;2023-05-10T13:58:18;4.80;;;2.30;;
23531;SDS011;11943;52.270;20.978;2023-05-10T14:00:44;7.25;;;1.75;;
23531;SDS011;11943;52.270;20.978;2023-05-10T14:03:10;8.85;;;2.67;;
23531;SDS011;11943;52.270;20.978;2023-05-10T14:05:35;4.35;;;2.20;;
23531;SDS011;11943;52.270;20.978;2023-05-10T14:08:01;6.95;;;2.10;;
23531;SDS011;11943;52.270;20.978;2023-05-10T14:10:28;5.13;;;2.00;;
23531;SDS011;11943;52.270;20.978;2023-05-10T14:12:53;5.75;;;1.98;;
23531;SDS011;11943;52.270;20.978;2023-05-10T14:15:19;7.70;;;1.88;;
23531;SDS011;11943;52.270;20.978;2023-05-10T14:17:45;5.32;;;2.13;;
23531;SDS011;11943;52.270;20.978;2023-05-10T14:20:11;5.22;;;1.80;;
23531;SDS011;11943;52.270;20.978;2023-05-10T14:22:36;7.53;;;2.17;;
23531;SDS011;11943;52.270;20.978;2023-05-10T14:25:02;3.38;;;2.10;;
23531;SDS011;11943;52.270;20.978;2023-05-10T14:27:28;5.72;;;2.30;;
23531;SDS011;11943;52.270;20.978;2023-05-10T14:29:54;6.50;;;2.13;;
23531;SDS011;11943;52.270;20.978;2023-05-10T14:32:20;3.25;;;1.77;;
23531;SDS011;11943;52.270;20.978;2023-05-10T14:34:45;5.63;;;2.03;;
23531;SDS011;11943;52.270;20.978;2023-05-10T14:37:11;7.03;;;1.60;;
23531;SDS011;11943;52.270;20.978;2023-05-10T14:39:38;4.90;;;2.08;;
23531;SDS011;11943;52.270;20.978;2023-05-10T14:42:04;7.72;;;2.30;;
23531;SDS011;11943;52.270;20.978;2023-05-10T14:44:29;6.20;;;1.95;;
23531;SDS011;11943;52.270;20.978;2023-05-10T14:46:55;6.30;;;2.50;;
23531;SDS011;11943;52.270;20.978;2023-05-10T14:49:21;3.63;;;1.73;;
23531;SDS011;11943;52.270;20.978;2023-05-10T14:51:49;7.90;;;1.90;;
23531;SDS011;11943;52.270;20.978;2023-05-10T14:54:15;8.82;;;1.90;;
23531;SDS011;11943;52.270;20.978;2023-05-10T14:56:40;9.55;;;2.80;;
23531;SDS011;11943;52.270;20.978;2023-05-10T14:59:07;3.88;;;1.70;;
23531;SDS011;11943;52.270;20.978;2023-05-10T15:01:33;9.38;;;2.13;;
23531;SDS011;11943;52.270;20.978;2023-05-10T15:04:02;7.07;;;2.50;;
23531;SDS011;11943;52.270;20.978;2023-05-10T15:06:31;4.95;;;2.03;;
23531;SDS011;11943;52.270;20.978;2023-05-10T15:09:00;3.05;;;1.48;;
23531;SDS011;11943;52.270;20.978;2023-05-10T15:11:28;4.28;;;2.03;;
23531;SDS011;11943;52.270;20.978;2023-05-10T15:13:54;5.38;;;1.70;;
23531;SDS011;11943;52.270;20.978;2023-05-10T15:16:20;7.65;;;1.90;;
23531;SDS011;11943;52.270;20.978;2023-05-10T15:18:46;3.33;;;1.92;;
23531;SDS011;11943;52.270;20.978;2023-05-10T15:21:11;6.85;;;2.30;;
23531;SDS011;11943;52.270;20.978;2023-05-10T15:23:37;5.15;;;1.85;;
23531;SDS011;11943;52.270;20.978;2023-05-10T15:26:03;3.10;;;2.00;;
23531;SDS011;11943;52.270;20.978;2023-05-10T15:28:29;4.20;;;1.83;;
23531;SDS011;11943;52.270;20.978;2023-05-10T15:30:55;4.53;;;1.95;;
23531;SDS011;11943;52.270;20.978;2023-05-10T15:33:21;4.38;;;2.05;;
23531;SDS011;11943;52.270;20.978;2023-05-10T15:35:47;9.25;;;2.78;;
23531;SDS011;11943;52.270;20.978;2023-05-10T15:38:13;4.63;;;2.10;;
23531;SDS011;11943;52.270;20.978;2023-05-10T15:40:39;2.67;;;1.77;;